createdAt,value
2016-06-10T00:00:04.033Z,14.8
2016-06-10T00:00:14.036Z,14.8
2016-06-10T00:00:24.036Z,14.8
2016-06-10T00:00:34.036Z,14.8
2016-06-10T00:00:44.020Z,14.8
2016-06-10T00:00:54.020Z,14.8
2016-06-10T00:01:04.020Z,14.7
2016-06-10T00:01:14.008Z,14.7
2016-06-10T00:01:23.992Z,14.7
2016-06-10T00:01:34.008Z,14.7
2016-06-10T00:01:43.992Z,14.7
2016-06-10T00:01:53.992Z,14.7
2016-06-10T00:02:03.977Z,14.7
2016-06-10T00:02:13.980Z,14.7
2016-06-10T00:02:23.980Z,14.7
2016-06-10T00:02:33.980Z,14.6
2016-06-10T00:02:43.980Z,14.6
2016-06-10T00:02:53.964Z,14.6
2016-06-10T00:03:03.948Z,14.6
2016-06-10T00:03:13.936Z,14.6
2016-06-10T00:03:23.951Z,14.6
2016-06-10T00:03:33.936Z,14.6
2016-06-10T00:03:43.936Z,14.6
2016-06-10T00:03:53.951Z,14.7
2016-06-10T00:04:03.936Z,14.7
2016-06-10T00:04:13.923Z,14.7
2016-06-10T00:04:23.907Z,14.7
2016-06-10T00:04:33.923Z,14.7
2016-06-10T00:04:43.907Z,14.7
2016-06-10T00:04:53.892Z,14.7
2016-06-10T00:05:03.892Z,14.7
2016-06-10T00:05:13.896Z,14.7
2016-06-10T00:05:23.740Z,14.7
2016-06-10T00:05:33.880Z,14.7
2016-06-10T00:05:43.880Z,14.7
2016-06-10T00:05:53.865Z,14.7
2016-06-10T00:06:03.865Z,14.7
2016-06-10T00:06:13.851Z,14.7
2016-06-10T00:06:23.851Z,14.7
2016-06-10T00:06:33.851Z,14.7
2016-06-10T00:06:43.835Z,14.7
2016-06-10T00:06:53.835Z,14.7
2016-06-10T00:07:03.835Z,14.7
2016-06-10T00:07:13.839Z,14.7
2016-06-10T00:07:23.824Z,14.7
2016-06-10T00:07:33.824Z,14.7
2016-06-10T00:07:43.808Z,14.7
2016-06-10T00:07:53.808Z,14.7
2016-06-10T00:08:03.792Z,14.7
2016-06-10T00:08:13.795Z,14.7
2016-06-10T00:08:23.795Z,14.6
2016-06-10T00:08:33.795Z,14.6
2016-06-10T00:08:43.795Z,14.6
2016-06-10T00:08:53.780Z,14.7
2016-06-10T00:09:05.452Z,14.6
2016-06-10T00:09:14.048Z,14.6
2016-06-10T00:09:23.892Z,14.6
2016-06-10T00:09:34.533Z,14.6
2016-06-10T00:09:44.173Z,14.6
2016-06-10T00:09:53.798Z,14.7
2016-06-10T00:10:03.892Z,14.6
2016-06-10T00:10:13.770Z,14.6
2016-06-10T00:10:24.036Z,14.6
2016-06-10T00:10:33.723Z,14.6
2016-06-10T00:10:43.723Z,14.6
2016-06-10T00:10:53.708Z,14.6
2016-06-10T00:11:03.723Z,14.6
2016-06-10T00:11:13.711Z,14.7
2016-06-10T00:11:23.711Z,14.7
2016-06-10T00:11:33.695Z,14.7
2016-06-10T00:11:43.695Z,14.7
2016-06-10T00:11:53.679Z,14.7
2016-06-10T00:12:03.695Z,14.7
2016-06-10T00:12:13.682Z,14.7
2016-06-10T00:12:23.682Z,14.7
2016-06-10T00:12:33.682Z,14.7
2016-06-10T00:12:43.667Z,14.7
2016-06-10T00:12:53.651Z,14.7
2016-06-10T00:13:03.667Z,14.7
2016-06-10T00:13:13.654Z,14.7
2016-06-10T00:13:23.654Z,14.7
2016-06-10T00:13:33.654Z,14.7
2016-06-10T00:13:43.639Z,14.7
2016-06-10T00:13:53.623Z,14.7
2016-06-10T00:14:03.623Z,14.6
2016-06-10T00:14:13.626Z,14.7
2016-06-10T00:14:23.626Z,14.6
2016-06-10T00:14:33.626Z,14.6
2016-06-10T00:14:43.454Z,14.6
2016-06-10T00:14:53.595Z,14.6
2016-06-10T00:15:03.595Z,14.6
2016-06-10T00:15:13.441Z,14.6
2016-06-10T00:15:23.613Z,14.6
2016-06-10T00:15:33.582Z,14.6
2016-06-10T00:15:43.582Z,14.6
2016-06-10T00:15:53.582Z,14.6
2016-06-10T00:16:03.566Z,14.6
2016-06-10T00:16:13.554Z,14.6
2016-06-10T00:16:23.554Z,14.6
2016-06-10T00:16:33.554Z,14.5
2016-06-10T00:16:43.554Z,14.5
2016-06-10T00:16:53.554Z,14.5
2016-06-10T00:17:03.538Z,14.5
2016-06-10T00:17:13.527Z,14.5
2016-06-10T00:17:23.527Z,14.5
2016-06-10T00:17:33.527Z,14.5
2016-06-10T00:17:43.527Z,14.5
2016-06-10T00:17:53.527Z,14.5
2016-06-10T00:18:03.511Z,14.5
2016-06-10T00:18:13.498Z,14.5
2016-06-10T00:18:23.498Z,14.5
2016-06-10T00:18:33.498Z,14.5
2016-06-10T00:18:43.342Z,14.5
2016-06-10T00:18:53.498Z,14.5
2016-06-10T00:19:03.483Z,14.6
2016-06-10T00:19:13.500Z,14.6
2016-06-10T00:19:23.469Z,14.6
2016-06-10T00:19:33.469Z,14.6
2016-06-10T00:19:43.328Z,14.6
2016-06-10T00:19:54.078Z,14.6
2016-06-10T00:20:03.453Z,14.6
2016-06-10T00:20:13.456Z,14.6
2016-06-10T00:20:23.456Z,14.6
2016-06-10T00:20:33.441Z,14.6
2016-06-10T00:20:43.441Z,14.6
2016-06-10T00:20:53.425Z,14.6
2016-06-10T00:21:03.410Z,14.5
2016-06-10T00:21:13.460Z,14.5
2016-06-10T00:21:23.414Z,14.5
2016-06-10T00:21:33.414Z,14.6
2016-06-10T00:21:43.414Z,14.6
2016-06-10T00:21:53.398Z,14.6
2016-06-10T00:22:03.382Z,14.6
2016-06-10T00:22:13.245Z,14.6
2016-06-10T00:22:23.385Z,14.6
2016-06-10T00:22:33.370Z,14.5
2016-06-10T00:22:43.370Z,14.5
2016-06-10T00:22:53.370Z,14.5
2016-06-10T00:23:03.370Z,14.5
2016-06-10T00:23:13.356Z,14.5
2016-06-10T00:23:23.200Z,14.6
2016-06-10T00:23:33.356Z,14.6
2016-06-10T00:23:43.340Z,14.6
2016-06-10T00:23:53.340Z,14.6
2016-06-10T00:24:05.340Z,14.6
2016-06-10T00:24:13.391Z,14.6
2016-06-10T00:24:23.766Z,14.5
2016-06-10T00:24:33.423Z,14.5
2016-06-10T00:24:43.579Z,14.5
2016-06-10T00:24:53.766Z,14.5
2016-06-10T00:25:03.157Z,14.5
2016-06-10T00:25:13.660Z,14.5
2016-06-10T00:25:23.144Z,14.5
2016-06-10T00:25:33.285Z,14.5
2016-06-10T00:25:43.285Z,14.5
2016-06-10T00:25:53.285Z,14.5
2016-06-10T00:26:03.269Z,14.5
2016-06-10T00:26:13.272Z,14.5
2016-06-10T00:26:23.272Z,14.5
2016-06-10T00:26:33.257Z,14.6
2016-06-10T00:26:43.257Z,14.6
2016-06-10T00:26:53.241Z,14.6
2016-06-10T00:27:03.241Z,14.6
2016-06-10T00:27:13.244Z,14.6
2016-06-10T00:27:23.228Z,14.5
2016-06-10T00:27:33.228Z,14.5
2016-06-10T00:27:43.228Z,14.5
2016-06-10T00:27:53.228Z,14.5
2016-06-10T00:28:03.213Z,14.5
2016-06-10T00:28:13.231Z,14.5
2016-06-10T00:28:23.216Z,14.5
2016-06-10T00:28:33.200Z,14.5
2016-06-10T00:28:43.200Z,14.5
2016-06-10T00:28:53.200Z,14.5
2016-06-10T00:29:03.185Z,14.5
2016-06-10T00:29:13.203Z,14.5
2016-06-10T00:29:23.031Z,14.5
2016-06-10T00:29:33.172Z,14.5
2016-06-10T00:29:43.172Z,14.5
2016-06-10T00:29:53.156Z,14.5
2016-06-10T00:30:03.156Z,14.5
2016-06-10T00:30:13.159Z,14.5
2016-06-10T00:30:23.144Z,14.5
2016-06-10T00:30:33.128Z,14.5
2016-06-10T00:30:43.128Z,14.5
2016-06-10T00:30:53.128Z,14.5
2016-06-10T00:31:03.128Z,14.5
2016-06-10T00:31:13.131Z,14.5
2016-06-10T00:31:23.115Z,14.5
2016-06-10T00:31:33.115Z,14.4
2016-06-10T00:31:43.100Z,14.5
2016-06-10T00:31:53.100Z,14.4
2016-06-10T00:32:03.100Z,14.5
2016-06-10T00:32:13.087Z,14.5
2016-06-10T00:32:23.087Z,14.5
2016-06-10T00:32:33.072Z,14.4
2016-06-10T00:32:43.072Z,14.4
2016-06-10T00:32:53.072Z,14.4
2016-06-10T00:33:03.056Z,14.4
2016-06-10T00:33:13.059Z,14.4
2016-06-10T00:33:23.059Z,14.4
2016-06-10T00:33:33.059Z,14.4
2016-06-10T00:33:43.043Z,14.4
2016-06-10T00:33:53.043Z,14.4
2016-06-10T00:34:03.043Z,14.4
2016-06-10T00:34:13.032Z,14.4
2016-06-10T00:34:23.032Z,14.4
2016-06-10T00:34:33.016Z,14.4
2016-06-10T00:34:43.016Z,14.4
2016-06-10T00:34:53.016Z,14.4
2016-06-10T00:35:03.000Z,14.4
2016-06-10T00:35:13.003Z,14.4
2016-06-10T00:35:23.003Z,14.4
2016-06-10T00:35:33.003Z,14.4
2016-06-10T00:35:42.988Z,14.4
2016-06-10T00:35:52.988Z,14.4
2016-06-10T00:36:02.988Z,14.4
2016-06-10T00:36:12.991Z,14.4
2016-06-10T00:36:22.960Z,14.4
2016-06-10T00:36:32.960Z,14.5
2016-06-10T00:36:42.960Z,14.4
2016-06-10T00:36:52.960Z,14.4
2016-06-10T00:37:02.944Z,14.4
2016-06-10T00:37:12.947Z,14.4
2016-06-10T00:37:22.947Z,14.5
2016-06-10T00:37:32.931Z,14.5
2016-06-10T00:37:42.916Z,14.5
2016-06-10T00:37:52.619Z,14.5
2016-06-10T00:38:02.916Z,14.5
2016-06-10T00:38:12.919Z,14.5
2016-06-10T00:38:22.903Z,14.5
2016-06-10T00:38:32.919Z,14.5
2016-06-10T00:38:42.887Z,14.5
2016-06-10T00:38:52.887Z,14.5
2016-06-10T00:39:02.887Z,14.5
2016-06-10T00:39:12.890Z,14.5
2016-06-10T00:39:23.187Z,14.4
2016-06-10T00:39:32.734Z,14.4
2016-06-10T00:39:43.484Z,14.4
2016-06-10T00:39:52.828Z,14.5
2016-06-10T00:40:02.875Z,14.5
2016-06-10T00:40:13.393Z,14.5
2016-06-10T00:40:23.768Z,14.4
2016-06-10T00:40:32.815Z,14.4
2016-06-10T00:40:42.847Z,14.4
2016-06-10T00:40:52.831Z,14.4
2016-06-10T00:41:02.831Z,14.4
2016-06-10T00:41:12.834Z,14.4
2016-06-10T00:41:22.834Z,14.4
2016-06-10T00:41:32.818Z,14.4
2016-06-10T00:41:42.803Z,14.4
2016-06-10T00:41:52.803Z,14.4
2016-06-10T00:42:02.803Z,14.4
2016-06-10T00:42:12.806Z,14.4
2016-06-10T00:42:22.790Z,14.4
2016-06-10T00:42:32.790Z,14.4
2016-06-10T00:42:42.774Z,14.4
2016-06-10T00:42:52.774Z,14.4
2016-06-10T00:43:02.774Z,14.4
2016-06-10T00:43:12.763Z,14.4
2016-06-10T00:43:22.763Z,14.4
2016-06-10T00:43:32.763Z,14.4
2016-06-10T00:43:42.763Z,14.5
2016-06-10T00:43:52.747Z,14.4
2016-06-10T00:44:02.747Z,14.4
2016-06-10T00:44:12.749Z,14.5
2016-06-10T00:44:22.734Z,14.4
2016-06-10T00:44:32.718Z,14.4
2016-06-10T00:44:42.718Z,14.4
2016-06-10T00:44:52.734Z,14.4
2016-06-10T00:45:02.702Z,14.4
2016-06-10T00:45:12.549Z,14.4
2016-06-10T00:45:22.705Z,14.4
2016-06-10T00:45:32.721Z,14.4
2016-06-10T00:45:42.705Z,14.4
2016-06-10T00:45:52.690Z,14.4
2016-06-10T00:46:02.674Z,14.4
2016-06-10T00:46:12.522Z,14.4
2016-06-10T00:46:22.662Z,14.4
2016-06-10T00:46:32.662Z,14.4
2016-06-10T00:46:42.662Z,14.5
2016-06-10T00:46:52.647Z,14.4
2016-06-10T00:47:02.647Z,14.4
2016-06-10T00:47:12.650Z,14.4
2016-06-10T00:47:22.494Z,14.4
2016-06-10T00:47:32.634Z,14.5
2016-06-10T00:47:42.634Z,14.4
2016-06-10T00:47:52.619Z,14.4
2016-06-10T00:48:02.619Z,14.4
2016-06-10T00:48:12.606Z,14.4
2016-06-10T00:48:22.465Z,14.4
2016-06-10T00:48:32.590Z,14.4
2016-06-10T00:48:42.606Z,14.4
2016-06-10T00:48:52.606Z,14.4
2016-06-10T00:49:02.622Z,14.4
2016-06-10T00:49:12.608Z,14.4
2016-06-10T00:49:22.577Z,14.4
2016-06-10T00:49:32.577Z,14.4
2016-06-10T00:49:42.577Z,14.4
2016-06-10T00:49:52.577Z,14.4
2016-06-10T00:50:02.561Z,14.4
2016-06-10T00:50:12.565Z,14.4
2016-06-10T00:50:22.549Z,14.4
2016-06-10T00:50:32.549Z,14.4
2016-06-10T00:50:42.393Z,14.4
2016-06-10T00:50:52.534Z,14.4
2016-06-10T00:51:02.534Z,14.4
2016-06-10T00:51:12.537Z,14.4
2016-06-10T00:51:22.209Z,14.4
2016-06-10T00:51:32.521Z,14.4
2016-06-10T00:51:42.521Z,14.4
2016-06-10T00:51:52.506Z,14.4
2016-06-10T00:52:02.506Z,14.4
2016-06-10T00:52:12.509Z,14.4
2016-06-10T00:52:22.493Z,14.4
2016-06-10T00:52:32.493Z,14.3
2016-06-10T00:52:42.321Z,14.4
2016-06-10T00:52:52.477Z,14.4
2016-06-10T00:53:02.462Z,14.4
2016-06-10T00:53:12.465Z,14.3
2016-06-10T00:53:22.480Z,14.3
2016-06-10T00:53:32.465Z,14.3
2016-06-10T00:53:42.449Z,14.3
2016-06-10T00:53:52.449Z,14.3
2016-06-10T00:54:02.433Z,14.3
2016-06-10T00:54:12.436Z,14.3
2016-06-10T00:54:23.343Z,14.3
2016-06-10T00:54:32.858Z,14.3
2016-06-10T00:54:42.311Z,14.3
2016-06-10T00:54:52.421Z,14.3
2016-06-10T00:55:02.983Z,14.3
2016-06-10T00:55:13.299Z,14.3
2016-06-10T00:55:22.643Z,14.3
2016-06-10T00:55:33.096Z,14.3
2016-06-10T00:55:42.393Z,14.3
2016-06-10T00:55:52.393Z,14.3
2016-06-10T00:56:02.393Z,14.3
2016-06-10T00:56:12.380Z,14.3
2016-06-10T00:56:22.364Z,14.3
2016-06-10T00:56:32.364Z,14.3
2016-06-10T00:56:42.364Z,14.3
2016-06-10T00:56:52.364Z,14.3
2016-06-10T00:57:02.364Z,14.3
2016-06-10T00:57:12.352Z,14.3
2016-06-10T00:57:22.352Z,14.3
2016-06-10T00:57:32.336Z,14.3
2016-06-10T00:57:42.336Z,14.3
2016-06-10T00:57:52.320Z,14.3
2016-06-10T00:58:02.320Z,14.3
2016-06-10T00:58:12.323Z,14.2
2016-06-10T00:58:22.308Z,14.2
2016-06-10T00:58:32.339Z,14.2
2016-06-10T00:58:42.308Z,14.2
2016-06-10T00:58:52.339Z,14.2
2016-06-10T00:59:02.292Z,14.2
2016-06-10T00:59:12.281Z,14.2
2016-06-10T00:59:22.281Z,14.2
2016-06-10T00:59:32.281Z,14.2
2016-06-10T00:59:42.281Z,14.2
2016-06-10T00:59:52.265Z,14.1
2016-06-10T01:00:02.265Z,14.2
2016-06-10T01:00:12.252Z,14.2
2016-06-10T01:00:22.252Z,14.2
2016-06-10T01:00:32.252Z,14.2
2016-06-10T01:00:42.252Z,14.2
2016-06-10T01:00:52.237Z,14.2
2016-06-10T01:01:02.252Z,14.1
2016-06-10T01:01:12.240Z,14.2
2016-06-10T01:01:22.224Z,14.2
2016-06-10T01:01:32.224Z,14.2
2016-06-10T01:01:42.208Z,14.2
2016-06-10T01:01:52.208Z,14.2
2016-06-10T01:02:02.208Z,14.2
2016-06-10T01:02:12.208Z,14.2
2016-06-10T01:02:22.180Z,14.2
2016-06-10T01:02:32.196Z,14.2
2016-06-10T01:02:42.180Z,14.2
2016-06-10T01:02:52.180Z,14.2
2016-06-10T01:03:02.180Z,14.2
2016-06-10T01:03:12.180Z,14.2
2016-06-10T01:03:22.152Z,14.2
2016-06-10T01:03:32.152Z,14.2
2016-06-10T01:03:42.152Z,14.1
2016-06-10T01:03:52.152Z,14.2
2016-06-10T01:04:02.136Z,14.2
2016-06-10T01:04:12.136Z,14.2
2016-06-10T01:04:22.155Z,14.2
2016-06-10T01:04:32.124Z,14.2
2016-06-10T01:04:42.124Z,14.2
2016-06-10T01:04:52.124Z,14.2
2016-06-10T01:05:02.124Z,14.2
2016-06-10T01:05:12.108Z,14.2
2016-06-10T01:05:22.111Z,14.2
2016-06-10T01:05:32.111Z,14.2
2016-06-10T01:05:42.095Z,14.2
2016-06-10T01:05:52.080Z,14.2
2016-06-10T01:06:02.080Z,14.2
2016-06-10T01:06:12.080Z,14.2
2016-06-10T01:06:22.083Z,14.1
2016-06-10T01:06:32.067Z,14.1
2016-06-10T01:06:42.083Z,14.1
2016-06-10T01:06:52.067Z,14.1
2016-06-10T01:07:02.067Z,14.1
2016-06-10T01:07:12.036Z,14.1
2016-06-10T01:07:22.055Z,14.1
2016-06-10T01:07:32.039Z,14.1
2016-06-10T01:07:42.055Z,14.1
2016-06-10T01:07:52.039Z,14.1
2016-06-10T01:08:02.023Z,14.1
2016-06-10T01:08:12.023Z,14.1
2016-06-10T01:08:22.026Z,14.1
2016-06-10T01:08:32.011Z,14.1
2016-06-10T01:08:42.011Z,14.1
2016-06-10T01:08:52.011Z,14.1
2016-06-10T01:09:01.995Z,14.1
2016-06-10T01:09:11.979Z,14.1
2016-06-10T01:09:21.982Z,14.1
2016-06-10T01:09:31.811Z,14.1
2016-06-10T01:09:42.326Z,14.1
2016-06-10T01:09:51.982Z,14.1
2016-06-10T01:10:02.045Z,14.1
2016-06-10T01:10:12.342Z,14.1
2016-06-10T01:10:21.986Z,14.1
2016-06-10T01:10:32.658Z,14.1
2016-06-10T01:10:41.658Z,14.1
2016-06-10T01:10:51.783Z,14.1
2016-06-10T01:11:01.924Z,14.1
2016-06-10T01:11:11.940Z,14.1
2016-06-10T01:11:21.927Z,14.1
2016-06-10T01:11:31.927Z,14.1
2016-06-10T01:11:41.911Z,14.1
2016-06-10T01:11:51.911Z,14.1
2016-06-10T01:12:01.896Z,14.1
2016-06-10T01:12:11.896Z,14.1
2016-06-10T01:12:21.899Z,14.1
2016-06-10T01:12:31.899Z,14.1
2016-06-10T01:12:41.883Z,14.1
2016-06-10T01:12:51.883Z,14.1
2016-06-10T01:13:01.867Z,14
2016-06-10T01:13:11.883Z,14
2016-06-10T01:13:21.870Z,14
2016-06-10T01:13:31.855Z,14
2016-06-10T01:13:41.855Z,14
2016-06-10T01:13:51.839Z,14
2016-06-10T01:14:01.855Z,14
2016-06-10T01:14:11.839Z,14
2016-06-10T01:14:21.842Z,14
2016-06-10T01:14:31.827Z,14
2016-06-10T01:14:41.827Z,14
2016-06-10T01:14:51.827Z,14
2016-06-10T01:15:01.827Z,14
2016-06-10T01:15:11.811Z,14
2016-06-10T01:15:21.814Z,14
2016-06-10T01:15:31.798Z,14
2016-06-10T01:15:41.798Z,14
2016-06-10T01:15:51.798Z,14
2016-06-10T01:16:01.642Z,14
2016-06-10T01:16:11.783Z,14
2016-06-10T01:16:21.770Z,14
2016-06-10T01:16:31.770Z,14
2016-06-10T01:16:41.770Z,14
2016-06-10T01:16:51.754Z,14.1
2016-06-10T01:17:01.770Z,14
2016-06-10T01:17:11.770Z,14
2016-06-10T01:17:21.742Z,14
2016-06-10T01:17:31.742Z,14
2016-06-10T01:17:41.742Z,14
2016-06-10T01:17:51.726Z,14
2016-06-10T01:18:01.726Z,14
2016-06-10T01:18:11.726Z,14
2016-06-10T01:18:21.714Z,13.9
2016-06-10T01:18:31.714Z,13.9
2016-06-10T01:18:41.714Z,13.9
2016-06-10T01:18:51.698Z,13.9
2016-06-10T01:19:01.714Z,13.9
2016-06-10T01:19:11.682Z,13.9
2016-06-10T01:19:21.685Z,14
2016-06-10T01:19:31.670Z,14
2016-06-10T01:19:41.670Z,14
2016-06-10T01:19:51.670Z,14
2016-06-10T01:20:01.670Z,13.9
2016-06-10T01:20:11.670Z,14
2016-06-10T01:20:21.658Z,14
2016-06-10T01:20:31.658Z,14
2016-06-10T01:20:41.658Z,14
2016-06-10T01:20:51.642Z,14
2016-06-10T01:21:01.642Z,14
2016-06-10T01:21:11.486Z,13.9
2016-06-10T01:21:21.629Z,13.9
2016-06-10T01:21:31.629Z,13.9
2016-06-10T01:21:41.629Z,13.9
2016-06-10T01:21:51.629Z,13.9
2016-06-10T01:22:01.613Z,13.9
2016-06-10T01:22:11.598Z,13.9
2016-06-10T01:22:21.601Z,13.9
2016-06-10T01:22:31.585Z,13.8
2016-06-10T01:22:41.601Z,13.8
2016-06-10T01:22:51.569Z,13.8
2016-06-10T01:23:01.585Z,13.8
2016-06-10T01:23:11.569Z,13.8
2016-06-10T01:23:21.572Z,13.8
2016-06-10T01:23:31.572Z,13.8
2016-06-10T01:23:41.572Z,13.8
2016-06-10T01:23:51.557Z,13.8
2016-06-10T01:24:01.541Z,13.8
2016-06-10T01:24:11.525Z,13.8
2016-06-10T01:24:21.529Z,13.8
2016-06-10T01:24:31.998Z,13.8
2016-06-10T01:24:42.139Z,13.8
2016-06-10T01:24:51.233Z,13.8
2016-06-10T01:25:01.654Z,13.8
2016-06-10T01:25:11.967Z,13.8
2016-06-10T01:25:21.375Z,13.8
2016-06-10T01:25:33.125Z,13.8
2016-06-10T01:25:41.516Z,13.8
2016-06-10T01:25:51.485Z,13.8
2016-06-10T01:26:01.485Z,13.8
2016-06-10T01:26:11.485Z,13.8
2016-06-10T01:26:21.489Z,13.8
2016-06-10T01:26:31.489Z,13.8
2016-06-10T01:26:41.457Z,13.8
2016-06-10T01:26:51.457Z,13.8
2016-06-10T01:27:01.457Z,13.8
2016-06-10T01:27:11.457Z,13.8
2016-06-10T01:27:21.459Z,13.7
2016-06-10T01:27:31.444Z,13.8
2016-06-10T01:27:41.428Z,13.8
2016-06-10T01:27:51.428Z,13.8
2016-06-10T01:28:01.428Z,13.8
2016-06-10T01:28:11.428Z,13.8
2016-06-10T01:28:21.416Z,13.8
2016-06-10T01:28:31.416Z,13.8
2016-06-10T01:28:41.416Z,13.8
2016-06-10T01:28:51.401Z,13.8
2016-06-10T01:29:01.401Z,13.8
2016-06-10T01:29:11.401Z,13.8
2016-06-10T01:29:21.387Z,13.8
2016-06-10T01:29:31.387Z,13.8
2016-06-10T01:29:41.387Z,13.8
2016-06-10T01:29:51.372Z,13.8
2016-06-10T01:30:01.356Z,13.8
2016-06-10T01:30:11.356Z,13.8
2016-06-10T01:30:21.360Z,13.8
2016-06-10T01:30:31.344Z,13.7
2016-06-10T01:30:41.344Z,13.7
2016-06-10T01:30:51.344Z,13.7
2016-06-10T01:31:01.329Z,13.7
2016-06-10T01:31:11.329Z,13.7
2016-06-10T01:31:21.331Z,13.7
2016-06-10T01:31:31.331Z,13.8
2016-06-10T01:31:41.315Z,13.8
2016-06-10T01:31:51.315Z,13.7
2016-06-10T01:32:01.331Z,13.7
2016-06-10T01:32:11.299Z,13.7
2016-06-10T01:32:21.303Z,13.8
2016-06-10T01:32:31.288Z,13.8
2016-06-10T01:32:41.132Z,13.8
2016-06-10T01:32:51.272Z,13.8
2016-06-10T01:33:01.288Z,13.8
2016-06-10T01:33:11.272Z,13.8
2016-06-10T01:33:21.275Z,13.8
2016-06-10T01:33:31.275Z,13.8
2016-06-10T01:33:41.260Z,13.8
2016-06-10T01:33:51.260Z,13.8
2016-06-10T01:34:01.244Z,13.8
2016-06-10T01:34:11.244Z,13.7
2016-06-10T01:34:21.231Z,13.7
2016-06-10T01:34:31.231Z,13.7
2016-06-10T01:34:41.231Z,13.7
2016-06-10T01:34:51.216Z,13.7
2016-06-10T01:35:01.216Z,13.7
2016-06-10T01:35:11.231Z,13.7
2016-06-10T01:35:21.219Z,13.7
2016-06-10T01:35:31.203Z,13.7
2016-06-10T01:35:41.187Z,13.7
2016-06-10T01:35:51.187Z,13.7
2016-06-10T01:36:01.187Z,13.6
2016-06-10T01:36:11.172Z,13.6
2016-06-10T01:36:21.191Z,13.6
2016-06-10T01:36:31.191Z,13.6
2016-06-10T01:36:41.160Z,13.6
2016-06-10T01:36:51.145Z,13.6
2016-06-10T01:37:01.160Z,13.6
2016-06-10T01:37:11.160Z,13.6
2016-06-10T01:37:21.147Z,13.6
2016-06-10T01:37:31.147Z,13.6
2016-06-10T01:37:41.131Z,13.6
2016-06-10T01:37:51.131Z,13.6
2016-06-10T01:38:01.115Z,13.6
2016-06-10T01:38:11.131Z,13.5
2016-06-10T01:38:21.118Z,13.5
2016-06-10T01:38:31.118Z,13.5
2016-06-10T01:38:41.103Z,13.5
2016-06-10T01:38:51.103Z,13.5
2016-06-10T01:39:01.087Z,13.5
2016-06-10T01:39:10.931Z,13.5
2016-06-10T01:39:21.091Z,13.5
2016-06-10T01:39:31.075Z,13.5
2016-06-10T01:39:41.122Z,13.5
2016-06-10T01:39:51.107Z,13.5
2016-06-10T01:40:01.404Z,13.5
2016-06-10T01:40:11.888Z,13.4
2016-06-10T01:40:21.078Z,13.4
2016-06-10T01:40:32.000Z,13.4
2016-06-10T01:40:41.125Z,13.4
2016-06-10T01:40:51.235Z,13.5
2016-06-10T01:41:01.047Z,13.5
2016-06-10T01:41:11.032Z,13.5
2016-06-10T01:41:21.065Z,13.4
2016-06-10T01:41:31.018Z,13.4
2016-06-10T01:41:41.018Z,13.5
2016-06-10T01:41:51.018Z,13.4
2016-06-10T01:42:01.002Z,13.4
2016-06-10T01:42:10.987Z,13.5
2016-06-10T01:42:20.991Z,13.4
2016-06-10T01:42:30.991Z,13.4
2016-06-10T01:42:40.991Z,13.4
2016-06-10T01:42:50.991Z,13.4
2016-06-10T01:43:00.819Z,13.4
2016-06-10T01:43:10.959Z,13.4
2016-06-10T01:43:20.962Z,13.4
2016-06-10T01:43:30.962Z,13.4
2016-06-10T01:43:40.962Z,13.4
2016-06-10T01:43:50.962Z,13.4
2016-06-10T01:44:00.947Z,13.4
2016-06-10T01:44:10.931Z,13.4
2016-06-10T01:44:20.950Z,13.4
2016-06-10T01:44:30.919Z,13.4
2016-06-10T01:44:40.934Z,13.4
2016-06-10T01:44:50.919Z,13.5
2016-06-10T01:45:00.919Z,13.5
2016-06-10T01:45:10.903Z,13.4
2016-06-10T01:45:20.750Z,13.4
2016-06-10T01:45:30.890Z,13.4
2016-06-10T01:45:40.906Z,13.4
2016-06-10T01:45:50.890Z,13.4
2016-06-10T01:46:00.890Z,13.4
2016-06-10T01:46:10.875Z,13.4
2016-06-10T01:46:20.721Z,13.3
2016-06-10T01:46:30.862Z,13.3
2016-06-10T01:46:40.721Z,13.3
2016-06-10T01:46:50.862Z,13.3
2016-06-10T01:47:00.878Z,13.3
2016-06-10T01:47:10.846Z,13.3
2016-06-10T01:47:20.834Z,13.4
2016-06-10T01:47:30.834Z,13.4
2016-06-10T01:47:40.834Z,13.4
2016-06-10T01:47:50.834Z,13.4
2016-06-10T01:48:00.818Z,13.4
2016-06-10T01:48:10.818Z,13.4
2016-06-10T01:48:20.821Z,13.4
2016-06-10T01:48:30.821Z,13.4
2016-06-10T01:48:40.806Z,13.4
2016-06-10T01:48:50.806Z,13.4
2016-06-10T01:49:00.790Z,13.4
2016-06-10T01:49:10.790Z,13.4
2016-06-10T01:49:20.777Z,13.4
2016-06-10T01:49:30.777Z,13.4
2016-06-10T01:49:40.777Z,13.4
2016-06-10T01:49:50.793Z,13.4
2016-06-10T01:50:00.777Z,13.4
2016-06-10T01:50:10.746Z,13.4
2016-06-10T01:50:20.749Z,13.4
2016-06-10T01:50:30.749Z,13.4
2016-06-10T01:50:40.749Z,13.4
2016-06-10T01:50:50.749Z,13.3
2016-06-10T01:51:00.733Z,13.3
2016-06-10T01:51:10.733Z,13.3
2016-06-10T01:51:20.737Z,13.3
2016-06-10T01:51:30.722Z,13.3
2016-06-10T01:51:40.722Z,13.3
2016-06-10T01:51:50.706Z,13.3
2016-06-10T01:52:00.706Z,13.3
2016-06-10T01:52:10.706Z,13.3
2016-06-10T01:52:20.694Z,13.3
2016-06-10T01:52:30.678Z,13.3
2016-06-10T01:52:40.678Z,13.3
2016-06-10T01:52:50.678Z,13.3
2016-06-10T01:53:00.678Z,13.3
2016-06-10T01:53:10.678Z,13.3
2016-06-10T01:53:20.664Z,13.4
2016-06-10T01:53:30.664Z,13.4
2016-06-10T01:53:40.649Z,13.3
2016-06-10T01:53:50.649Z,13.3
2016-06-10T01:54:00.649Z,13.3
2016-06-10T01:54:10.633Z,13.3
2016-06-10T01:54:20.637Z,13.3
2016-06-10T01:54:30.637Z,13.3
2016-06-10T01:54:41.121Z,13.4
2016-06-10T01:54:51.528Z,13.3
2016-06-10T01:55:01.543Z,13.4
2016-06-10T01:55:10.481Z,13.3
2016-06-10T01:55:20.312Z,13.4
2016-06-10T01:55:30.609Z,13.4
2016-06-10T01:55:40.734Z,13.4
2016-06-10T01:55:50.593Z,13.4
2016-06-10T01:56:00.593Z,13.4
2016-06-10T01:56:10.578Z,13.4
2016-06-10T01:56:20.580Z,13.4
2016-06-10T01:56:30.564Z,13.4
2016-06-10T01:56:40.595Z,13.4
2016-06-10T01:56:50.548Z,13.4
2016-06-10T01:57:00.548Z,13.4
2016-06-10T01:57:10.548Z,13.4
2016-06-10T01:57:20.537Z,13.4
2016-06-10T01:57:30.537Z,13.4
2016-06-10T01:57:40.537Z,13.4
2016-06-10T01:57:50.537Z,13.4
2016-06-10T01:58:00.521Z,13.4
2016-06-10T01:58:10.521Z,13.4
2016-06-10T01:58:20.508Z,13.4
2016-06-10T01:58:30.508Z,13.4
2016-06-10T01:58:40.493Z,13.4
2016-06-10T01:58:50.508Z,13.4
2016-06-10T01:59:00.493Z,13.4
2016-06-10T01:59:10.493Z,13.4
2016-06-10T01:59:20.496Z,13.4
2016-06-10T01:59:30.480Z,13.4
2016-06-10T01:59:40.480Z,13.4
2016-06-10T01:59:50.480Z,13.4
2016-06-10T02:00:00.480Z,13.4
2016-06-10T02:00:10.465Z,13.4
2016-06-10T02:00:20.468Z,13.4
2016-06-10T02:00:30.452Z,13.4
2016-06-10T02:00:40.452Z,13.4
2016-06-10T02:00:50.436Z,13.4
2016-06-10T02:01:00.421Z,13.4
2016-06-10T02:01:10.421Z,13.4
2016-06-10T02:01:20.424Z,13.4
2016-06-10T02:01:30.267Z,13.4
2016-06-10T02:01:40.408Z,13.4
2016-06-10T02:01:50.424Z,13.4
2016-06-10T02:02:00.392Z,13.4
2016-06-10T02:02:10.408Z,13.4
2016-06-10T02:02:20.411Z,13.4
2016-06-10T02:02:30.380Z,13.4
2016-06-10T02:02:40.380Z,13.4
2016-06-10T02:02:50.380Z,13.4
2016-06-10T02:03:00.380Z,13.4
2016-06-10T02:03:10.364Z,13.4
2016-06-10T02:03:20.367Z,13.4
2016-06-10T02:03:30.367Z,13.4
2016-06-10T02:03:40.352Z,13.4
2016-06-10T02:03:50.352Z,13.4
2016-06-10T02:04:00.336Z,13.4
2016-06-10T02:04:10.336Z,13.4
2016-06-10T02:04:20.339Z,13.4
2016-06-10T02:04:30.323Z,13.4
2016-06-10T02:04:40.167Z,13.4
2016-06-10T02:04:50.323Z,13.3
2016-06-10T02:05:00.323Z,13.4
2016-06-10T02:05:10.308Z,13.4
2016-06-10T02:05:20.296Z,13.4
2016-06-10T02:05:30.296Z,13.4
2016-06-10T02:05:40.296Z,13.4
2016-06-10T02:05:50.280Z,13.4
2016-06-10T02:06:00.124Z,13.4
2016-06-10T02:06:10.280Z,13.4
2016-06-10T02:06:20.267Z,13.4
2016-06-10T02:06:30.267Z,13.4
2016-06-10T02:06:40.267Z,13.4
2016-06-10T02:06:50.251Z,13.4
2016-06-10T02:07:00.251Z,13.4
2016-06-10T02:07:10.251Z,13.5
2016-06-10T02:07:20.240Z,13.4
2016-06-10T02:07:30.240Z,13.4
2016-06-10T02:07:40.224Z,13.4
2016-06-10T02:07:50.224Z,13.4
2016-06-10T02:08:00.224Z,13.4
2016-06-10T02:08:10.224Z,13.4
2016-06-10T02:08:20.211Z,13.5
2016-06-10T02:08:30.211Z,13.4
2016-06-10T02:08:40.211Z,13.4
2016-06-10T02:08:50.196Z,13.5
2016-06-10T02:09:00.196Z,13.5
2016-06-10T02:09:10.180Z,13.5
2016-06-10T02:09:20.182Z,13.5
2016-06-10T02:09:30.166Z,13.5
2016-06-10T02:09:40.010Z,13.5
2016-06-10T02:09:50.166Z,13.4
2016-06-10T02:10:01.135Z,13.4
2016-06-10T02:10:10.229Z,13.4
2016-06-10T02:10:20.764Z,13.4
2016-06-10T02:10:31.249Z,13.4
2016-06-10T02:10:39.999Z,13.4
2016-06-10T02:10:50.186Z,13.4
2016-06-10T02:11:00.577Z,13.4
2016-06-10T02:11:10.452Z,13.4
2016-06-10T02:11:20.126Z,13.4
2016-06-10T02:11:30.126Z,13.5
2016-06-10T02:11:40.110Z,13.5
2016-06-10T02:11:50.110Z,13.5
2016-06-10T02:12:00.094Z,13.5
2016-06-10T02:12:10.094Z,13.4
2016-06-10T02:12:20.098Z,13.4
2016-06-10T02:12:30.083Z,13.4
2016-06-10T02:12:40.083Z,13.5
2016-06-10T02:12:50.067Z,13.5
2016-06-10T02:13:00.067Z,13.5
2016-06-10T02:13:10.067Z,13.5
2016-06-10T02:13:20.070Z,13.4
2016-06-10T02:13:30.054Z,13.4